sensor_id;sensor_type;location;lat;lon;timestamp;P1;durP1;ratioP1;P2;durP2;ratioP2
2173;SDS011;1093;51.424;11.764;2022-08-07T00:01:54;8.30;;;6.63;;
2173;SDS011;1093;51.424;11.764;2022-08-07T00:04:21;9.80;;;7.57;;
2173;SDS011;1093;51.424;11.764;2022-08-07T00:06:47;6.90;;;5.70;;
2173;SDS011;1093;51.424;11.764;2022-08-07T00:09:14;8.17;;;5.30;;
2173;SDS011;1093;51.424;11.764;2022-08-07T00:11:42;5.63;;;2.90;;
2173;SDS011;1093;51.424;11.764;2022-08-07T00:14:10;3.07;;;2.50;;
2173;SDS011;1093;51.424;11.764;2022-08-07T00:16:36;2.37;;;2.00;;
2173;SDS011;1093;51.424;11.764;2022-08-07T00:19:03;2.30;;;2.10;;
2173;SDS011;1093;51.424;11.764;2022-08-07T00:21:36;2.10;;;2.00;;
2173;SDS011;1093;51.424;11.764;2022-08-07T00:24:05;2.70;;;2.10;;
2173;SDS011;1093;51.424;11.764;2022-08-07T00:26:31;6.00;;;4.20;;
2173;SDS011;1093;51.424;11.764;2022-08-07T00:28:59;1.90;;;1.80;;
2173;SDS011;1093;51.424;11.764;2022-08-07T00:31:26;2.30;;;2.10;;
2173;SDS011;1093;51.424;11.764;2022-08-07T00:33:53;6.40;;;2.27;;
2173;SDS011;1093;51.424;11.764;2022-08-07T00:36:19;2.40;;;2.20;;
2173;SDS011;1093;51.424;11.764;2022-08-07T00:38:46;2.50;;;1.73;;
2173;SDS011;1093;51.424;11.764;2022-08-07T00:41:13;2.73;;;2.53;;
2173;SDS011;1093;51.424;11.764;2022-08-07T00:43:40;5.53;;;2.10;;
2173;SDS011;1093;51.424;11.764;2022-08-07T00:46:08;6.23;;;3.53;;
2173;SDS011;1093;51.424;11.764;2022-08-07T00:48:35;2.87;;;2.30;;
2173;SDS011;1093;51.424;11.764;2022-08-07T00:51:02;4.50;;;2.67;;
2173;SDS011;1093;51.424;11.764;2022-08-07T00:53:29;2.20;;;2.10;;
2173;SDS011;1093;51.424;11.764;2022-08-07T00:55:56;2.93;;;2.13;;
2173;SDS011;1093;51.424;11.764;2022-08-07T00:58:23;2.37;;;1.93;;
2173;SDS011;1093;51.424;11.764;2022-08-07T01:00:49;1.80;;;1.70;;
2173;SDS011;1093;51.424;11.764;2022-08-07T01:03:18;3.47;;;2.10;;
2173;SDS011;1093;51.424;11.764;2022-08-07T01:05:44;3.60;;;1.80;;
2173;SDS011;1093;51.424;11.764;2022-08-07T01:08:12;2.30;;;2.10;;
2173;SDS011;1093;51.424;11.764;2022-08-07T01:10:39;2.77;;;2.30;;
2173;SDS011;1093;51.424;11.764;2022-08-07T01:13:06;3.17;;;2.50;;
2173;SDS011;1093;51.424;11.764;2022-08-07T01:15:33;2.50;;;2.30;;
2173;SDS011;1093;51.424;11.764;2022-08-07T01:18:02;1.80;;;1.70;;
2173;SDS011;1093;51.424;11.764;2022-08-07T01:20:32;2.50;;;2.07;;
2173;SDS011;1093;51.424;11.764;2022-08-07T01:23:03;2.07;;;1.97;;
2173;SDS011;1093;51.424;11.764;2022-08-07T01:25:30;2.37;;;2.20;;
2173;SDS011;1093;51.424;11.764;2022-08-07T01:27:58;5.20;;;2.50;;
2173;SDS011;1093;51.424;11.764;2022-08-07T01:30:25;8.03;;;5.90;;
2173;SDS011;1093;51.424;11.764;2022-08-07T01:32:52;12.17;;;9.07;;
2173;SDS011;1093;51.424;11.764;2022-08-07T01:35:19;9.80;;;7.93;;
2173;SDS011;1093;51.424;11.764;2022-08-07T01:37:46;7.83;;;6.97;;
2173;SDS011;1093;51.424;11.764;2022-08-07T01:40:16;5.57;;;4.53;;
2173;SDS011;1093;51.424;11.764;2022-08-07T01:42:45;6.77;;;4.50;;
2173;SDS011;1093;51.424;11.764;2022-08-07T01:45:12;4.83;;;3.40;;
2173;SDS011;1093;51.424;11.764;2022-08-07T01:47:39;3.50;;;2.67;;
2173;SDS011;1093;51.424;11.764;2022-08-07T01:50:06;2.27;;;2.07;;
2173;SDS011;1093;51.424;11.764;2022-08-07T01:52:33;5.00;;;3.37;;
2173;SDS011;1093;51.424;11.764;2022-08-07T01:55:04;3.10;;;2.80;;
2173;SDS011;1093;51.424;11.764;2022-08-07T01:57:36;3.13;;;2.83;;
2173;SDS011;1093;51.424;11.764;2022-08-07T02:00:05;2.43;;;2.23;;
2173;SDS011;1093;51.424;11.764;2022-08-07T02:02:35;3.17;;;2.93;;
2173;SDS011;1093;51.424;11.764;2022-08-07T02:05:08;3.60;;;2.80;;
2173;SDS011;1093;51.424;11.764;2022-08-07T02:07:38;3.53;;;2.63;;
2173;SDS011;1093;51.424;11.764;2022-08-07T02:10:08;3.40;;;2.97;;
2173;SDS011;1093;51.424;11.764;2022-08-07T02:12:39;4.10;;;2.97;;
2173;SDS011;1093;51.424;11.764;2022-08-07T02:15:08;3.00;;;2.77;;
2173;SDS011;1093;51.424;11.764;2022-08-07T02:17:36;3.80;;;3.50;;
2173;SDS011;1093;51.424;11.764;2022-08-07T02:20:04;3.67;;;3.37;;
2173;SDS011;1093;51.424;11.764;2022-08-07T02:22:33;3.73;;;3.03;;
2173;SDS011;1093;51.424;11.764;2022-08-07T02:25:03;5.23;;;4.77;;
2173;SDS011;1093;51.424;11.764;2022-08-07T02:27:31;5.70;;;5.20;;
2173;SDS011;1093;51.424;11.764;2022-08-07T02:30:01;4.20;;;3.77;;
2173;SDS011;1093;51.424;11.764;2022-08-07T02:32:29;4.57;;;3.50;;
2173;SDS011;1093;51.424;11.764;2022-08-07T02:35:00;4.13;;;3.43;;
2173;SDS011;1093;51.424;11.764;2022-08-07T02:37:39;2.97;;;2.57;;
2173;SDS011;1093;51.424;11.764;2022-08-07T02:40:07;2.90;;;2.30;;
2173;SDS011;1093;51.424;11.764;2022-08-07T02:42:35;3.77;;;3.40;;
2173;SDS011;1093;51.424;11.764;2022-08-07T02:45:04;2.90;;;2.70;;
2173;SDS011;1093;51.424;11.764;2022-08-07T02:47:35;5.40;;;2.50;;
2173;SDS011;1093;51.424;11.764;2022-08-07T02:50:02;3.10;;;2.73;;
2173;SDS011;1093;51.424;11.764;2022-08-07T02:52:31;2.93;;;2.63;;
2173;SDS011;1093;51.424;11.764;2022-08-07T02:55:03;3.43;;;2.03;;
2173;SDS011;1093;51.424;11.764;2022-08-07T02:57:33;3.00;;;2.80;;
2173;SDS011;1093;51.424;11.764;2022-08-07T03:00:04;2.83;;;2.60;;
2173;SDS011;1093;51.424;11.764;2022-08-07T03:02:32;2.40;;;2.23;;
2173;SDS011;1093;51.424;11.764;2022-08-07T03:05:07;2.80;;;2.60;;
2173;SDS011;1093;51.424;11.764;2022-08-07T03:07:35;3.20;;;2.90;;
2173;SDS011;1093;51.424;11.764;2022-08-07T03:10:04;2.67;;;2.47;;
2173;SDS011;1093;51.424;11.764;2022-08-07T03:12:31;3.17;;;2.87;;
2173;SDS011;1093;51.424;11.764;2022-08-07T03:14:59;2.87;;;2.67;;
2173;SDS011;1093;51.424;11.764;2022-08-07T03:17:28;5.13;;;2.97;;
2173;SDS011;1093;51.424;11.764;2022-08-07T03:19:56;3.53;;;3.10;;
2173;SDS011;1093;51.424;11.764;2022-08-07T03:22:23;3.73;;;2.90;;
2173;SDS011;1093;51.424;11.764;2022-08-07T03:24:50;4.87;;;3.00;;
2173;SDS011;1093;51.424;11.764;2022-08-07T03:27:17;5.80;;;4.13;;
2173;SDS011;1093;51.424;11.764;2022-08-07T03:29:49;3.60;;;3.30;;
2173;SDS011;1093;51.424;11.764;2022-08-07T03:32:18;3.20;;;2.90;;
2173;SDS011;1093;51.424;11.764;2022-08-07T03:34:50;2.80;;;2.60;;
2173;SDS011;1093;51.424;11.764;2022-08-07T03:37:19;3.47;;;2.77;;
2173;SDS011;1093;51.424;11.764;2022-08-07T03:39:47;2.93;;;2.70;;
2173;SDS011;1093;51.424;11.764;2022-08-07T03:42:14;2.30;;;2.10;;
2173;SDS011;1093;51.424;11.764;2022-08-07T03:44:43;2.87;;;2.67;;
2173;SDS011;1093;51.424;11.764;2022-08-07T03:47:10;2.77;;;2.57;;
2173;SDS011;1093;51.424;11.764;2022-08-07T03:49:37;3.10;;;2.87;;
2173;SDS011;1093;51.424;11.764;2022-08-07T03:52:06;3.20;;;2.47;;
2173;SDS011;1093;51.424;11.764;2022-08-07T03:54:34;2.90;;;2.70;;
2173;SDS011;1093;51.424;11.764;2022-08-07T03:57:01;3.17;;;2.97;;
2173;SDS011;1093;51.424;11.764;2022-08-07T03:59:29;3.00;;;2.70;;
2173;SDS011;1093;51.424;11.764;2022-08-07T04:01:57;2.93;;;2.40;;
2173;SDS011;1093;51.424;11.764;2022-08-07T04:04:25;6.50;;;3.60;;
2173;SDS011;1093;51.424;11.764;2022-08-07T04:06:52;2.83;;;2.63;;
2173;SDS011;1093;51.424;11.764;2022-08-07T04:09:20;5.50;;;3.80;;
2173;SDS011;1093;51.424;11.764;2022-08-07T04:11:48;4.00;;;3.53;;
2173;SDS011;1093;51.424;11.764;2022-08-07T04:14:15;3.77;;;3.33;;
2173;SDS011;1093;51.424;11.764;2022-08-07T04:16:42;2.80;;;2.60;;
2173;SDS011;1093;51.424;11.764;2022-08-07T04:19:09;7.37;;;3.10;;
2173;SDS011;1093;51.424;11.764;2022-08-07T04:21:36;3.67;;;3.07;;
2173;SDS011;1093;51.424;11.764;2022-08-07T04:24:03;2.90;;;2.23;;
2173;SDS011;1093;51.424;11.764;2022-08-07T04:26:35;3.10;;;2.90;;
2173;SDS011;1093;51.424;11.764;2022-08-07T04:29:05;2.87;;;2.67;;
2173;SDS011;1093;51.424;11.764;2022-08-07T04:31:34;4.03;;;3.63;;
2173;SDS011;1093;51.424;11.764;2022-08-07T04:34:02;7.53;;;3.07;;
2173;SDS011;1093;51.424;11.764;2022-08-07T04:36:29;3.93;;;3.20;;
2173;SDS011;1093;51.424;11.764;2022-08-07T04:38:56;7.90;;;4.90;;
2173;SDS011;1093;51.424;11.764;2022-08-07T04:41:23;4.10;;;3.70;;
2173;SDS011;1093;51.424;11.764;2022-08-07T04:43:51;3.40;;;3.10;;
2173;SDS011;1093;51.424;11.764;2022-08-07T04:46:21;3.30;;;3.00;;
2173;SDS011;1093;51.424;11.764;2022-08-07T04:48:55;3.63;;;3.07;;
2173;SDS011;1093;51.424;11.764;2022-08-07T04:51:31;3.20;;;2.70;;
2173;SDS011;1093;51.424;11.764;2022-08-07T04:54:07;2.57;;;2.37;;
2173;SDS011;1093;51.424;11.764;2022-08-07T04:56:42;4.30;;;3.20;;
2173;SDS011;1093;51.424;11.764;2022-08-07T04:59:15;3.43;;;2.83;;
2173;SDS011;1093;51.424;11.764;2022-08-07T05:01:52;3.13;;;2.83;;
2173;SDS011;1093;51.424;11.764;2022-08-07T05:04:27;3.17;;;2.90;;
2173;SDS011;1093;51.424;11.764;2022-08-07T05:07:00;3.77;;;2.80;;
2173;SDS011;1093;51.424;11.764;2022-08-07T05:09:36;2.53;;;2.33;;
2173;SDS011;1093;51.424;11.764;2022-08-07T05:12:06;3.50;;;2.30;;
2173;SDS011;1093;51.424;11.764;2022-08-07T05:14:39;3.33;;;3.03;;
2173;SDS011;1093;51.424;11.764;2022-08-07T05:17:09;3.13;;;2.93;;
2173;SDS011;1093;51.424;11.764;2022-08-07T05:19:41;4.07;;;3.40;;
2173;SDS011;1093;51.424;11.764;2022-08-07T05:22:11;4.40;;;3.13;;
2173;SDS011;1093;51.424;11.764;2022-08-07T05:24:39;2.83;;;2.40;;
2173;SDS011;1093;51.424;11.764;2022-08-07T05:27:08;3.30;;;2.67;;
2173;SDS011;1093;51.424;11.764;2022-08-07T05:29:38;4.57;;;2.80;;
2173;SDS011;1093;51.424;11.764;2022-08-07T05:32:07;2.57;;;2.37;;
2173;SDS011;1093;51.424;11.764;2022-08-07T05:34:36;2.93;;;2.67;;
2173;SDS011;1093;51.424;11.764;2022-08-07T05:37:05;4.60;;;2.50;;
2173;SDS011;1093;51.424;11.764;2022-08-07T05:39:33;5.97;;;2.40;;
2173;SDS011;1093;51.424;11.764;2022-08-07T05:42:01;4.60;;;2.33;;
2173;SDS011;1093;51.424;11.764;2022-08-07T05:44:29;3.80;;;3.00;;
2173;SDS011;1093;51.424;11.764;2022-08-07T05:47:00;3.63;;;2.40;;
2173;SDS011;1093;51.424;11.764;2022-08-07T05:49:28;3.47;;;2.90;;
2173;SDS011;1093;51.424;11.764;2022-08-07T05:51:55;3.60;;;3.33;;
2173;SDS011;1093;51.424;11.764;2022-08-07T05:54:23;4.73;;;3.10;;
2173;SDS011;1093;51.424;11.764;2022-08-07T05:56:50;2.77;;;2.40;;
2173;SDS011;1093;51.424;11.764;2022-08-07T05:59:19;2.80;;;2.60;;
2173;SDS011;1093;51.424;11.764;2022-08-07T06:01:47;2.87;;;2.60;;
2173;SDS011;1093;51.424;11.764;2022-08-07T06:04:17;7.00;;;2.63;;
2173;SDS011;1093;51.424;11.764;2022-08-07T06:06:46;4.80;;;3.27;;
2173;SDS011;1093;51.424;11.764;2022-08-07T06:09:14;2.37;;;2.17;;
2173;SDS011;1093;51.424;11.764;2022-08-07T06:11:41;2.47;;;2.27;;
2173;SDS011;1093;51.424;11.764;2022-08-07T06:14:09;2.87;;;2.50;;
2173;SDS011;1093;51.424;11.764;2022-08-07T06:16:36;2.70;;;2.50;;
2173;SDS011;1093;51.424;11.764;2022-08-07T06:19:04;3.83;;;2.67;;
2173;SDS011;1093;51.424;11.764;2022-08-07T06:21:32;3.03;;;2.73;;
2173;SDS011;1093;51.424;11.764;2022-08-07T06:24:00;6.77;;;4.10;;
2173;SDS011;1093;51.424;11.764;2022-08-07T06:26:29;4.30;;;3.07;;
2173;SDS011;1093;51.424;11.764;2022-08-07T06:28:56;5.37;;;3.47;;
2173;SDS011;1093;51.424;11.764;2022-08-07T06:31:24;4.43;;;3.03;;
2173;SDS011;1093;51.424;11.764;2022-08-07T06:33:51;3.13;;;2.83;;
2173;SDS011;1093;51.424;11.764;2022-08-07T06:36:18;5.67;;;2.90;;
2173;SDS011;1093;51.424;11.764;2022-08-07T06:38:55;3.00;;;2.20;;
2173;SDS011;1093;51.424;11.764;2022-08-07T06:41:23;2.60;;;2.40;;
2173;SDS011;1093;51.424;11.764;2022-08-07T06:43:53;2.80;;;2.50;;
2173;SDS011;1093;51.424;11.764;2022-08-07T06:46:22;2.90;;;2.17;;
2173;SDS011;1093;51.424;11.764;2022-08-07T06:48:49;3.73;;;1.90;;
2173;SDS011;1093;51.424;11.764;2022-08-07T06:51:16;2.03;;;1.93;;
2173;SDS011;1093;51.424;11.764;2022-08-07T06:53:46;2.50;;;2.30;;
2173;SDS011;1093;51.424;11.764;2022-08-07T06:56:15;5.93;;;2.30;;
2173;SDS011;1093;51.424;11.764;2022-08-07T06:59:03;2.40;;;2.20;;
2173;SDS011;1093;51.424;11.764;2022-08-07T07:01:31;2.23;;;2.00;;
2173;SDS011;1093;51.424;11.764;2022-08-07T07:03:59;2.07;;;1.80;;
2173;SDS011;1093;51.424;11.764;2022-08-07T07:06:26;6.27;;;2.00;;
2173;SDS011;1093;51.424;11.764;2022-08-07T07:08:52;2.03;;;1.87;;
2173;SDS011;1093;51.424;11.764;2022-08-07T07:11:21;2.37;;;1.87;;
2173;SDS011;1093;51.424;11.764;2022-08-07T07:13:48;3.50;;;2.10;;
2173;SDS011;1093;51.424;11.764;2022-08-07T07:16:19;1.83;;;1.73;;
2173;SDS011;1093;51.424;11.764;2022-08-07T07:18:49;3.77;;;1.83;;
2173;SDS011;1093;51.424;11.764;2022-08-07T07:21:22;2.13;;;1.60;;
2173;SDS011;1093;51.424;11.764;2022-08-07T07:23:52;3.87;;;2.30;;
2173;SDS011;1093;51.424;11.764;2022-08-07T07:26:21;3.37;;;1.80;;
2173;SDS011;1093;51.424;11.764;2022-08-07T07:28:51;2.53;;;1.73;;
2173;SDS011;1093;51.424;11.764;2022-08-07T07:31:22;1.73;;;1.50;;
2173;SDS011;1093;51.424;11.764;2022-08-07T07:33:53;2.63;;;2.13;;
2173;SDS011;1093;51.424;11.764;2022-08-07T07:36:23;5.80;;;2.20;;
2173;SDS011;1093;51.424;11.764;2022-08-07T07:38:51;4.70;;;1.70;;
2173;SDS011;1093;51.424;11.764;2022-08-07T07:41:18;5.37;;;1.80;;
2173;SDS011;1093;51.424;11.764;2022-08-07T07:43:49;3.53;;;2.20;;
2173;SDS011;1093;51.424;11.764;2022-08-07T07:46:18;7.60;;;2.60;;
2173;SDS011;1093;51.424;11.764;2022-08-07T07:48:47;1.50;;;1.40;;
2173;SDS011;1093;51.424;11.764;2022-08-07T07:51:15;2.77;;;2.20;;
2173;SDS011;1093;51.424;11.764;2022-08-07T07:53:44;2.80;;;1.80;;
2173;SDS011;1093;51.424;11.764;2022-08-07T07:56:12;7.20;;;1.90;;
2173;SDS011;1093;51.424;11.764;2022-08-07T07:58:41;2.07;;;1.57;;
2173;SDS011;1093;51.424;11.764;2022-08-07T08:01:09;2.33;;;1.30;;
2173;SDS011;1093;51.424;11.764;2022-08-07T08:03:37;1.63;;;1.53;;
2173;SDS011;1093;51.424;11.764;2022-08-07T08:06:06;2.90;;;1.80;;
2173;SDS011;1093;51.424;11.764;2022-08-07T08:08:34;2.43;;;1.40;;
2173;SDS011;1093;51.424;11.764;2022-08-07T08:11:02;3.57;;;2.23;;
2173;SDS011;1093;51.424;11.764;2022-08-07T08:13:31;2.23;;;1.67;;
2173;SDS011;1093;51.424;11.764;2022-08-07T08:16:01;2.33;;;1.30;;
2173;SDS011;1093;51.424;11.764;2022-08-07T08:18:29;2.90;;;1.70;;
2173;SDS011;1093;51.424;11.764;2022-08-07T08:20:57;6.27;;;1.57;;
2173;SDS011;1093;51.424;11.764;2022-08-07T08:23:27;5.43;;;2.03;;
2173;SDS011;1093;51.424;11.764;2022-08-07T08:26:13;1.50;;;1.30;;
2173;SDS011;1093;51.424;11.764;2022-08-07T08:28:59;4.23;;;1.50;;
2173;SDS011;1093;51.424;11.764;2022-08-07T08:31:39;1.57;;;1.47;;
2173;SDS011;1093;51.424;11.764;2022-08-07T08:34:08;4.20;;;1.40;;
2173;SDS011;1093;51.424;11.764;2022-08-07T08:36:36;3.70;;;1.80;;
2173;SDS011;1093;51.424;11.764;2022-08-07T08:39:07;4.80;;;1.40;;
2173;SDS011;1093;51.424;11.764;2022-08-07T08:41:36;2.63;;;1.33;;
2173;SDS011;1093;51.424;11.764;2022-08-07T08:44:14;3.77;;;1.30;;
2173;SDS011;1093;51.424;11.764;2022-08-07T08:46:52;1.50;;;1.33;;
2173;SDS011;1093;51.424;11.764;2022-08-07T08:49:30;2.67;;;1.50;;
2173;SDS011;1093;51.424;11.764;2022-08-07T08:52:15;1.87;;;1.00;;
2173;SDS011;1093;51.424;11.764;2022-08-07T08:54:48;1.87;;;1.30;;
2173;SDS011;1093;51.424;11.764;2022-08-07T08:57:26;1.57;;;1.23;;
2173;SDS011;1093;51.424;11.764;2022-08-07T09:00:03;2.47;;;1.00;;
2173;SDS011;1093;51.424;11.764;2022-08-07T09:02:35;2.03;;;1.30;;
2173;SDS011;1093;51.424;11.764;2022-08-07T09:05:17;2.40;;;1.30;;
2173;SDS011;1093;51.424;11.764;2022-08-07T09:07:50;1.23;;;1.03;;
2173;SDS011;1093;51.424;11.764;2022-08-07T09:10:26;2.40;;;1.57;;
2173;SDS011;1093;51.424;11.764;2022-08-07T09:12:59;2.13;;;0.90;;
2173;SDS011;1093;51.424;11.764;2022-08-07T09:15:36;1.57;;;1.03;;
2173;SDS011;1093;51.424;11.764;2022-08-07T09:18:29;1.77;;;1.63;;
2173;SDS011;1093;51.424;11.764;2022-08-07T09:21:11;1.63;;;1.27;;
2173;SDS011;1093;51.424;11.764;2022-08-07T09:23:54;5.37;;;1.40;;
2173;SDS011;1093;51.424;11.764;2022-08-07T09:26:28;1.77;;;1.30;;
2173;SDS011;1093;51.424;11.764;2022-08-07T09:29:05;0.97;;;0.87;;
2173;SDS011;1093;51.424;11.764;2022-08-07T09:31:41;1.10;;;1.00;;
2173;SDS011;1093;51.424;11.764;2022-08-07T09:34:19;2.60;;;1.10;;
2173;SDS011;1093;51.424;11.764;2022-08-07T09:36:52;1.97;;;0.80;;
2173;SDS011;1093;51.424;11.764;2022-08-07T09:39:30;2.20;;;0.90;;
2173;SDS011;1093;51.424;11.764;2022-08-07T09:42:08;1.97;;;1.00;;
2173;SDS011;1093;51.424;11.764;2022-08-07T09:44:46;1.53;;;0.93;;
2173;SDS011;1093;51.424;11.764;2022-08-07T09:47:20;1.13;;;0.97;;
2173;SDS011;1093;51.424;11.764;2022-08-07T09:50:00;1.50;;;0.93;;
2173;SDS011;1093;51.424;11.764;2022-08-07T09:52:39;6.03;;;1.40;;
2173;SDS011;1093;51.424;11.764;2022-08-07T09:58:31;1.30;;;1.07;;
2173;SDS011;1093;51.424;11.764;2022-08-07T10:01:16;1.30;;;0.90;;
2173;SDS011;1093;51.424;11.764;2022-08-07T10:04:16;1.07;;;0.80;;
2173;SDS011;1093;51.424;11.764;2022-08-07T10:07:16;1.50;;;0.80;;
2173;SDS011;1093;51.424;11.764;2022-08-07T10:09:58;1.37;;;0.97;;
2173;SDS011;1093;51.424;11.764;2022-08-07T10:12:39;1.03;;;0.90;;
2173;SDS011;1093;51.424;11.764;2022-08-07T10:15:30;1.30;;;1.10;;
2173;SDS011;1093;51.424;11.764;2022-08-07T10:21:23;2.00;;;1.50;;
2173;SDS011;1093;51.424;11.764;2022-08-07T10:24:03;1.20;;;1.03;;
2173;SDS011;1093;51.424;11.764;2022-08-07T10:26:47;1.20;;;1.10;;
2173;SDS011;1093;51.424;11.764;2022-08-07T10:29:33;1.23;;;1.10;;
2173;SDS011;1093;51.424;11.764;2022-08-07T10:32:31;1.50;;;1.10;;
2173;SDS011;1093;51.424;11.764;2022-08-07T10:35:12;1.23;;;1.13;;
2173;SDS011;1093;51.424;11.764;2022-08-07T10:37:53;3.60;;;1.10;;
2173;SDS011;1093;51.424;11.764;2022-08-07T10:40:37;3.57;;;1.47;;
2173;SDS011;1093;51.424;11.764;2022-08-07T10:43:13;4.27;;;1.30;;
2173;SDS011;1093;51.424;11.764;2022-08-07T10:45:46;1.03;;;0.93;;
2173;SDS011;1093;51.424;11.764;2022-08-07T10:48:22;1.20;;;1.10;;
2173;SDS011;1093;51.424;11.764;2022-08-07T10:50:57;1.70;;;1.00;;
2173;SDS011;1093;51.424;11.764;2022-08-07T10:53:30;7.23;;;1.60;;
2173;SDS011;1093;51.424;11.764;2022-08-07T10:56:12;1.63;;;1.13;;
2173;SDS011;1093;51.424;11.764;2022-08-07T10:58:52;1.40;;;1.00;;
2173;SDS011;1093;51.424;11.764;2022-08-07T11:01:38;1.60;;;0.90;;
2173;SDS011;1093;51.424;11.764;2022-08-07T11:04:19;1.50;;;1.40;;
2173;SDS011;1093;51.424;11.764;2022-08-07T11:06:59;2.07;;;1.10;;
2173;SDS011;1093;51.424;11.764;2022-08-07T11:09:43;2.83;;;1.00;;
2173;SDS011;1093;51.424;11.764;2022-08-07T11:12:19;1.30;;;0.90;;
2173;SDS011;1093;51.424;11.764;2022-08-07T11:14:51;1.20;;;1.00;;
2173;SDS011;1093;51.424;11.764;2022-08-07T11:17:23;1.80;;;1.00;;
2173;SDS011;1093;51.424;11.764;2022-08-07T11:19:57;2.20;;;1.00;;
2173;SDS011;1093;51.424;11.764;2022-08-07T11:22:29;3.77;;;1.20;;
2173;SDS011;1093;51.424;11.764;2022-08-07T11:25:02;4.60;;;1.30;;
2173;SDS011;1093;51.424;11.764;2022-08-07T11:27:39;2.50;;;1.17;;
2173;SDS011;1093;51.424;11.764;2022-08-07T11:30:13;2.70;;;1.13;;
2173;SDS011;1093;51.424;11.764;2022-08-07T11:32:42;2.80;;;0.87;;
2173;SDS011;1093;51.424;11.764;2022-08-07T11:35:17;1.33;;;1.20;;
2173;SDS011;1093;51.424;11.764;2022-08-07T11:37:49;1.87;;;1.40;;
2173;SDS011;1093;51.424;11.764;2022-08-07T11:40:35;2.23;;;1.37;;
2173;SDS011;1093;51.424;11.764;2022-08-07T11:43:12;1.00;;;0.80;;
2173;SDS011;1093;51.424;11.764;2022-08-07T11:45:47;1.53;;;1.20;;
2173;SDS011;1093;51.424;11.764;2022-08-07T11:48:38;2.07;;;1.00;;
2173;SDS011;1093;51.424;11.764;2022-08-07T11:51:19;1.40;;;1.00;;
2173;SDS011;1093;51.424;11.764;2022-08-07T11:53:59;2.63;;;1.00;;
2173;SDS011;1093;51.424;11.764;2022-08-07T11:56:42;2.97;;;1.13;;
2173;SDS011;1093;51.424;11.764;2022-08-07T11:59:25;3.27;;;1.27;;
2173;SDS011;1093;51.424;11.764;2022-08-07T12:02:15;1.70;;;1.17;;
2173;SDS011;1093;51.424;11.764;2022-08-07T12:04:57;2.53;;;1.03;;
2173;SDS011;1093;51.424;11.764;2022-08-07T12:07:31;1.00;;;0.80;;
2173;SDS011;1093;51.424;11.764;2022-08-07T12:10:03;1.20;;;1.10;;
2173;SDS011;1093;51.424;11.764;2022-08-07T12:12:35;1.00;;;0.90;;
2173;SDS011;1093;51.424;11.764;2022-08-07T12:15:09;1.37;;;0.90;;
2173;SDS011;1093;51.424;11.764;2022-08-07T12:17:39;1.80;;;1.13;;
2173;SDS011;1093;51.424;11.764;2022-08-07T12:20:11;1.43;;;1.20;;
2173;SDS011;1093;51.424;11.764;2022-08-07T12:22:50;1.10;;;1.00;;
2173;SDS011;1093;51.424;11.764;2022-08-07T12:25:38;1.87;;;1.30;;
2173;SDS011;1093;51.424;11.764;2022-08-07T12:28:19;2.47;;;1.30;;
2173;SDS011;1093;51.424;11.764;2022-08-07T12:30:54;3.93;;;1.07;;
2173;SDS011;1093;51.424;11.764;2022-08-07T12:33:24;2.40;;;1.50;;
2173;SDS011;1093;51.424;11.764;2022-08-07T12:35:55;1.23;;;0.90;;
2173;SDS011;1093;51.424;11.764;2022-08-07T12:38:23;1.27;;;1.17;;
2173;SDS011;1093;51.424;11.764;2022-08-07T12:40:53;1.63;;;1.20;;
2173;SDS011;1093;51.424;11.764;2022-08-07T12:43:23;2.27;;;1.20;;
2173;SDS011;1093;51.424;11.764;2022-08-07T12:46:00;1.57;;;1.20;;
2173;SDS011;1093;51.424;11.764;2022-08-07T12:48:35;2.27;;;1.20;;
2173;SDS011;1093;51.424;11.764;2022-08-07T12:51:10;1.80;;;1.27;;
2173;SDS011;1093;51.424;11.764;2022-08-07T12:56:08;2.60;;;0.73;;
2173;SDS011;1093;51.424;11.764;2022-08-07T12:58:43;1.50;;;0.80;;
2173;SDS011;1093;51.424;11.764;2022-08-07T13:01:18;3.00;;;1.27;;
2173;SDS011;1093;51.424;11.764;2022-08-07T13:03:59;2.40;;;1.53;;
2173;SDS011;1093;51.424;11.764;2022-08-07T13:10:07;1.03;;;0.93;;
2173;SDS011;1093;51.424;11.764;2022-08-07T13:12:49;1.70;;;1.00;;
2173;SDS011;1093;51.424;11.764;2022-08-07T13:15:25;1.80;;;1.17;;
2173;SDS011;1093;51.424;11.764;2022-08-07T13:18:06;1.10;;;0.90;;
2173;SDS011;1093;51.424;11.764;2022-08-07T13:20:43;1.43;;;1.13;;
2173;SDS011;1093;51.424;11.764;2022-08-07T13:23:16;3.00;;;1.03;;
2173;SDS011;1093;51.424;11.764;2022-08-07T13:25:49;5.90;;;1.10;;
2173;SDS011;1093;51.424;11.764;2022-08-07T13:28:21;2.10;;;1.20;;
2173;SDS011;1093;51.424;11.764;2022-08-07T13:30:54;1.40;;;0.90;;
2173;SDS011;1093;51.424;11.764;2022-08-07T13:33:28;3.03;;;1.60;;
2173;SDS011;1093;51.424;11.764;2022-08-07T13:36:02;2.50;;;1.23;;
2173;SDS011;1093;51.424;11.764;2022-08-07T13:38:37;1.47;;;1.00;;
2173;SDS011;1093;51.424;11.764;2022-08-07T13:41:10;2.30;;;1.40;;
2173;SDS011;1093;51.424;11.764;2022-08-07T13:43:46;2.50;;;1.13;;
2173;SDS011;1093;51.424;11.764;2022-08-07T13:46:15;1.80;;;1.07;;
2173;SDS011;1093;51.424;11.764;2022-08-07T13:48:45;1.57;;;1.10;;
2173;SDS011;1093;51.424;11.764;2022-08-07T13:51:17;1.73;;;1.00;;
2173;SDS011;1093;51.424;11.764;2022-08-07T13:53:48;5.03;;;1.30;;
2173;SDS011;1093;51.424;11.764;2022-08-07T13:56:17;2.40;;;1.13;;
2173;SDS011;1093;51.424;11.764;2022-08-07T13:58:48;1.23;;;1.10;;
2173;SDS011;1093;51.424;11.764;2022-08-07T14:01:28;1.63;;;0.87;;
2173;SDS011;1093;51.424;11.764;2022-08-07T14:03:58;1.43;;;1.00;;
2173;SDS011;1093;51.424;11.764;2022-08-07T14:06:31;2.83;;;1.30;;
2173;SDS011;1093;51.424;11.764;2022-08-07T14:08:59;1.23;;;1.00;;
2173;SDS011;1093;51.424;11.764;2022-08-07T14:11:28;1.27;;;1.17;;
2173;SDS011;1093;51.424;11.764;2022-08-07T14:14:00;1.20;;;1.10;;
2173;SDS011;1093;51.424;11.764;2022-08-07T14:16:30;2.20;;;1.00;;
2173;SDS011;1093;51.424;11.764;2022-08-07T14:19:02;1.60;;;1.20;;
2173;SDS011;1093;51.424;11.764;2022-08-07T14:21:31;3.47;;;1.10;;
2173;SDS011;1093;51.424;11.764;2022-08-07T14:24:01;3.07;;;1.07;;
2173;SDS011;1093;51.424;11.764;2022-08-07T14:26:35;1.10;;;1.00;;
2173;SDS011;1093;51.424;11.764;2022-08-07T14:29:04;1.07;;;0.97;;
2173;SDS011;1093;51.424;11.764;2022-08-07T14:31:35;2.20;;;1.30;;
2173;SDS011;1093;51.424;11.764;2022-08-07T14:34:04;1.30;;;1.20;;
2173;SDS011;1093;51.424;11.764;2022-08-07T14:36:32;1.90;;;1.40;;
2173;SDS011;1093;51.424;11.764;2022-08-07T14:39:00;3.60;;;1.50;;
2173;SDS011;1093;51.424;11.764;2022-08-07T14:41:29;4.10;;;1.30;;
2173;SDS011;1093;51.424;11.764;2022-08-07T14:43:57;2.47;;;1.00;;
2173;SDS011;1093;51.424;11.764;2022-08-07T14:46:28;1.03;;;0.90;;
2173;SDS011;1093;51.424;11.764;2022-08-07T14:48:57;2.10;;;0.97;;
2173;SDS011;1093;51.424;11.764;2022-08-07T14:51:26;1.47;;;1.20;;
2173;SDS011;1093;51.424;11.764;2022-08-07T14:53:55;1.00;;;0.93;;
2173;SDS011;1093;51.424;11.764;2022-08-07T14:56:25;1.40;;;1.10;;
2173;SDS011;1093;51.424;11.764;2022-08-07T14:58:54;1.60;;;1.20;;
2173;SDS011;1093;51.424;11.764;2022-08-07T15:01:26;2.50;;;0.90;;
2173;SDS011;1093;51.424;11.764;2022-08-07T15:03:57;0.90;;;0.70;;
2173;SDS011;1093;51.424;11.764;2022-08-07T15:06:26;1.23;;;1.03;;
2173;SDS011;1093;51.424;11.764;2022-08-07T15:09:01;1.57;;;1.00;;
2173;SDS011;1093;51.424;11.764;2022-08-07T15:11:30;1.53;;;1.17;;
2173;SDS011;1093;51.424;11.764;2022-08-07T15:14:02;4.03;;;1.13;;
2173;SDS011;1093;51.424;11.764;2022-08-07T15:16:32;2.33;;;1.10;;
2173;SDS011;1093;51.424;11.764;2022-08-07T15:19:04;1.53;;;1.10;;
2173;SDS011;1093;51.424;11.764;2022-08-07T15:21:35;1.23;;;0.90;;
2173;SDS011;1093;51.424;11.764;2022-08-07T15:24:08;1.40;;;1.00;;
2173;SDS011;1093;51.424;11.764;2022-08-07T15:26:40;1.67;;;1.10;;
2173;SDS011;1093;51.424;11.764;2022-08-07T15:29:10;2.43;;;1.20;;
2173;SDS011;1093;51.424;11.764;2022-08-07T15:31:40;2.30;;;1.50;;
2173;SDS011;1093;51.424;11.764;2022-08-07T15:34:08;1.30;;;1.00;;
2173;SDS011;1093;51.424;11.764;2022-08-07T15:36:37;2.13;;;1.20;;
2173;SDS011;1093;51.424;11.764;2022-08-07T15:39:06;1.77;;;1.40;;
2173;SDS011;1093;51.424;11.764;2022-08-07T15:41:36;1.03;;;0.93;;